createdAt,value
2023-05-08T00:00:55.822Z,7982.00
2023-05-08T00:01:55.844Z,8020.00
2023-05-08T00:02:55.908Z,8001.00
2023-05-08T00:03:56.084Z,7979.00
2023-05-08T00:04:56.015Z,8019.00
2023-05-08T00:05:55.980Z,7999.00
2023-05-08T00:06:55.917Z,7977.00
2023-05-08T00:07:55.950Z,8028.00
2023-05-08T00:08:56.045Z,7983.00
2023-05-08T00:09:56.046Z,8000.00
2023-05-08T00:10:56.154Z,7963.00
2023-05-08T00:11:56.245Z,7971.00
2023-05-08T00:12:56.224Z,7962.00
2023-05-08T00:13:56.263Z,7983.00
2023-05-08T00:14:56.343Z,8033.00
2023-05-08T00:15:56.405Z,8051.00
2023-05-08T00:16:56.447Z,8010.00
2023-05-08T00:17:56.512Z,7991.00
2023-05-08T00:18:56.514Z,7993.00
2023-05-08T00:19:56.527Z,7996.00
2023-05-08T00:20:57.150Z,7996.00
2023-05-08T00:21:56.661Z,8068.00
2023-05-08T00:22:56.642Z,8109.00
2023-05-08T00:23:56.706Z,8050.00
2023-05-08T00:24:56.716Z,7971.00
2023-05-08T00:25:56.829Z,7896.00
2023-05-08T00:26:56.847Z,7861.00
2023-05-08T00:27:56.884Z,7823.00
2023-05-08T00:28:56.995Z,7804.00
2023-05-08T00:29:57.123Z,7806.00
2023-05-08T00:30:57.050Z,7885.00
2023-05-08T00:31:57.134Z,7900.00
2023-05-08T00:32:57.223Z,7985.00
2023-05-08T00:33:57.134Z,8006.00
2023-05-08T00:34:57.249Z,8071.00
2023-05-08T00:35:57.294Z,8001.00
2023-05-08T00:36:57.294Z,8003.00
2023-05-08T00:37:57.362Z,8013.00
2023-05-08T00:38:57.341Z,7939.00
2023-05-08T00:39:57.433Z,7887.00
2023-05-08T00:40:57.434Z,7768.00
2023-05-08T00:41:57.478Z,7747.00
2023-05-08T00:42:57.518Z,7769.00
2023-05-08T00:43:57.540Z,7831.00
2023-05-08T00:44:57.596Z,7731.00
2023-05-08T00:45:57.626Z,7725.00
2023-05-08T00:46:57.636Z,7749.00
2023-05-08T00:47:57.685Z,7605.00
2023-05-08T00:48:57.689Z,7553.00
2023-05-08T00:49:57.709Z,7625.00
2023-05-08T00:50:57.683Z,7614.00
2023-05-08T00:51:57.720Z,7575.00
2023-05-08T00:52:57.710Z,7572.00
2023-05-08T00:53:57.795Z,7632.00
2023-05-08T00:54:57.936Z,7577.00
2023-05-08T00:55:57.879Z,7571.00
2023-05-08T00:56:57.996Z,7569.00
2023-05-08T00:57:57.957Z,7536.00
2023-05-08T00:58:58.025Z,7550.00
2023-05-08T00:59:58.063Z,7668.00
2023-05-08T01:00:58.064Z,7645.00
2023-05-08T01:01:58.141Z,7563.00
2023-05-08T01:02:58.157Z,7535.00
2023-05-08T01:03:58.181Z,7547.00
2023-05-08T01:04:58.287Z,7526.00
2023-05-08T01:06:00.225Z,7599.00
2023-05-08T01:06:58.275Z,7550.00
2023-05-08T01:07:58.304Z,7406.00
2023-05-08T01:08:58.317Z,7428.00
2023-05-08T01:09:58.320Z,7370.00
2023-05-08T01:10:58.392Z,7310.00
2023-05-08T01:11:58.436Z,7344.00
2023-05-08T01:12:58.488Z,7241.00
2023-05-08T01:13:58.558Z,7187.00
2023-05-08T01:14:58.527Z,7173.00
2023-05-08T01:15:59.172Z,7186.00
2023-05-08T01:16:58.617Z,7276.00
2023-05-08T01:17:58.636Z,7263.00
2023-05-08T01:18:58.598Z,7290.00
2023-05-08T01:19:58.664Z,7357.00
2023-05-08T01:20:58.674Z,7341.00
2023-05-08T01:21:58.712Z,7304.00
2023-05-08T01:22:58.736Z,7283.00
2023-05-08T01:23:58.775Z,7273.00
2023-05-08T01:24:58.809Z,7113.00
2023-05-08T01:25:58.897Z,7071.00
2023-05-08T01:26:58.914Z,7145.00
2023-05-08T01:27:58.847Z,7252.00
2023-05-08T01:28:58.918Z,7255.00
2023-05-08T01:29:58.922Z,7091.00
2023-05-08T01:30:58.944Z,7126.00
2023-05-08T01:31:58.988Z,7137.00
2023-05-08T01:32:59.083Z,6965.00
2023-05-08T01:33:59.128Z,6956.00
2023-05-08T01:34:59.120Z,7012.00
2023-05-08T01:35:59.138Z,6987.00
2023-05-08T01:36:59.668Z,7009.00
2023-05-08T01:37:59.246Z,7033.00
2023-05-08T01:38:59.259Z,7071.00
2023-05-08T01:39:59.331Z,7076.00
2023-05-08T01:40:59.283Z,7141.00
2023-05-08T01:41:59.310Z,7221.00
2023-05-08T01:42:59.373Z,7215.00
2023-05-08T01:43:59.412Z,7106.00
2023-05-08T01:44:59.416Z,7089.00
2023-05-08T01:45:59.540Z,7052.00
2023-05-08T01:46:59.534Z,7070.00
2023-05-08T01:47:59.629Z,7017.00
2023-05-08T01:49:00.178Z,7013.00
2023-05-08T01:49:59.580Z,7083.00
2023-05-08T01:50:59.570Z,7176.00
2023-05-08T01:51:59.589Z,7146.00
2023-05-08T01:52:59.621Z,7013.00
2023-05-08T01:53:59.674Z,7036.00
2023-05-08T01:54:59.707Z,7085.00
2023-05-08T01:55:59.716Z,7217.00
2023-05-08T01:56:59.752Z,7217.00
2023-05-08T01:57:59.775Z,7260.00
2023-05-08T01:58:59.782Z,7375.00
2023-05-08T01:59:59.826Z,7327.00
2023-05-08T02:00:59.929Z,7205.00
2023-05-08T02:02:00.242Z,7197.00
2023-05-08T02:02:59.916Z,7301.00
2023-05-08T02:03:59.922Z,7307.00
2023-05-08T02:04:59.970Z,7400.00
2023-05-08T02:05:59.938Z,7412.00
2023-05-08T02:07:00.011Z,7493.00
2023-05-08T02:07:59.993Z,7593.00
2023-05-08T02:09:00.011Z,7667.00
2023-05-08T02:10:00.089Z,7765.00
2023-05-08T02:11:00.064Z,7951.00
2023-05-08T02:12:00.121Z,8047.00
2023-05-08T02:13:00.176Z,8056.00
2023-05-08T02:14:00.148Z,8017.00
2023-05-08T02:15:00.145Z,7902.00
2023-05-08T02:16:00.196Z,7815.00
2023-05-08T02:17:01.194Z,7804.00
2023-05-08T02:18:00.306Z,7916.00
2023-05-08T02:19:00.267Z,8049.00
2023-05-08T02:20:00.297Z,8060.00
2023-05-08T02:21:00.292Z,8076.00
2023-05-08T02:22:00.409Z,8002.00
2023-05-08T02:23:00.332Z,7954.00
2023-05-08T02:24:00.354Z,7954.00
2023-05-08T02:25:00.376Z,7964.00
2023-05-08T02:26:00.424Z,7872.00
2023-05-08T02:27:00.473Z,7721.00
2023-05-08T02:28:00.488Z,7683.00
2023-05-08T02:29:00.522Z,7632.00
2023-05-08T02:30:00.599Z,7735.00
2023-05-08T02:31:00.575Z,7823.00
2023-05-08T02:32:00.627Z,7651.00
2023-05-08T02:33:01.011Z,7688.00
2023-05-08T02:34:00.677Z,7899.00
2023-05-08T02:35:03.500Z,8008.00
2023-05-08T02:36:00.701Z,7987.00
2023-05-08T02:37:00.707Z,7879.00
2023-05-08T02:38:00.709Z,7868.00
2023-05-08T02:39:00.698Z,7811.00
2023-05-08T02:40:00.713Z,7819.00
2023-05-08T02:41:00.716Z,7892.00
2023-05-08T02:42:00.707Z,7945.00
2023-05-08T02:43:00.681Z,8065.00
2023-05-08T02:44:00.632Z,8223.00
2023-05-08T02:45:00.652Z,8121.00
2023-05-08T02:46:00.737Z,8014.00
2023-05-08T02:47:00.655Z,8044.00
2023-05-08T02:48:00.687Z,7961.00
2023-05-08T02:49:00.614Z,7889.00
2023-05-08T02:50:00.680Z,7906.00
2023-05-08T02:51:00.620Z,7944.00
2023-05-08T02:52:00.614Z,7884.00
2023-05-08T02:53:00.604Z,7822.00
2023-05-08T02:54:00.555Z,7821.00
2023-05-08T02:55:00.723Z,7837.00
2023-05-08T02:56:00.582Z,7784.00
2023-05-08T02:57:00.565Z,7797.00
2023-05-08T02:58:00.591Z,7901.00
2023-05-08T02:59:00.660Z,8096.00
2023-05-08T03:00:00.611Z,8227.00
2023-05-08T03:01:00.651Z,8198.00
2023-05-08T03:02:00.557Z,8163.00
2023-05-08T03:03:00.595Z,8278.00
2023-05-08T03:04:00.596Z,8413.00
2023-05-08T03:05:00.501Z,8531.00
2023-05-08T03:06:00.581Z,8512.00
2023-05-08T03:07:00.530Z,8386.00
2023-05-08T03:08:00.496Z,8418.00
2023-05-08T03:09:00.476Z,8437.00
2023-05-08T03:10:00.504Z,8458.00
2023-05-08T03:11:00.467Z,8398.00
2023-05-08T03:12:00.693Z,8450.00
2023-05-08T03:13:00.535Z,8366.00
2023-05-08T03:14:00.524Z,8287.00
2023-05-08T03:15:00.559Z,8304.00
2023-05-08T03:16:00.486Z,8173.00
2023-05-08T03:17:00.422Z,8169.00
2023-05-08T03:18:00.482Z,8192.00
2023-05-08T03:19:00.408Z,8113.00
2023-05-08T03:20:00.427Z,7952.00
2023-05-08T03:21:00.418Z,7928.00
2023-05-08T03:22:00.409Z,7898.00
2023-05-08T03:23:00.376Z,7905.00
2023-05-08T03:24:00.361Z,7867.00
2023-05-08T03:25:00.392Z,7845.00
2023-05-08T03:26:00.354Z,7799.00
2023-05-08T03:27:00.350Z,7841.00
2023-05-08T03:28:00.379Z,7765.00
2023-05-08T03:29:00.344Z,7767.00
2023-05-08T03:30:00.362Z,7791.00
2023-05-08T03:31:00.356Z,7763.00
2023-05-08T03:32:00.396Z,7680.00
2023-05-08T03:33:00.459Z,7636.00
2023-05-08T03:34:00.446Z,7607.00
2023-05-08T03:35:00.435Z,7572.00
2023-05-08T03:36:01.228Z,7636.00
2023-05-08T03:37:00.504Z,7740.00
2023-05-08T03:38:00.525Z,7763.00
2023-05-08T03:39:00.483Z,7769.00
2023-05-08T03:40:00.491Z,7789.00
2023-05-08T03:41:00.558Z,7807.00
2023-05-08T03:42:00.579Z,7877.00
2023-05-08T03:43:00.559Z,7902.00
2023-05-08T03:44:00.606Z,7840.00
2023-05-08T03:45:00.580Z,7794.00
2023-05-08T03:46:00.606Z,7798.00
2023-05-08T03:47:00.705Z,7845.00
2023-05-08T03:48:00.719Z,7819.00
2023-05-08T03:49:00.672Z,7784.00
2023-05-08T03:50:00.718Z,7858.00
2023-05-08T03:51:00.744Z,7898.00
2023-05-08T03:52:00.764Z,7885.00
2023-05-08T03:53:00.783Z,7934.00
2023-05-08T03:54:00.854Z,8000.00
2023-05-08T03:55:00.875Z,7993.00
2023-05-08T03:56:00.960Z,8063.00
2023-05-08T03:57:00.956Z,8036.00
2023-05-08T03:58:01.008Z,8025.00
2023-05-08T03:59:01.075Z,8054.00
2023-05-08T04:00:01.186Z,7928.00
2023-05-08T04:01:01.142Z,7754.00
2023-05-08T04:02:01.266Z,7621.00
2023-05-08T04:03:01.262Z,7453.00
2023-05-08T04:04:01.194Z,7467.00
2023-05-08T04:05:01.137Z,7477.00
2023-05-08T04:06:01.245Z,7358.00
2023-05-08T04:07:01.215Z,7388.00
2023-05-08T04:08:01.267Z,7345.00
2023-05-08T04:09:01.360Z,7154.00
2023-05-08T04:10:01.377Z,7107.00
2023-05-08T04:11:01.436Z,6898.00
2023-05-08T04:12:01.483Z,6755.00
2023-05-08T04:13:01.612Z,6639.00
2023-05-08T04:14:01.540Z,6638.00
2023-05-08T04:15:01.642Z,6661.00
2023-05-08T04:16:01.678Z,6712.00
2023-05-08T04:17:01.785Z,6718.00
2023-05-08T04:18:01.805Z,6638.00
2023-05-08T04:19:01.785Z,6651.00
2023-05-08T04:20:01.894Z,6799.00
2023-05-08T04:21:01.884Z,6818.00
2023-05-08T04:22:01.961Z,6901.00
2023-05-08T04:23:01.966Z,7089.00
2023-05-08T04:24:02.039Z,6959.00
2023-05-08T04:25:02.060Z,7113.00
2023-05-08T04:26:03.657Z,7319.00
2023-05-08T04:27:02.042Z,7425.00
2023-05-08T04:28:02.009Z,7426.00
2023-05-08T04:29:02.037Z,7626.00
2023-05-08T04:30:02.010Z,7761.00
2023-05-08T04:31:02.005Z,7613.00
2023-05-08T04:32:02.113Z,7590.00
2023-05-08T04:33:02.069Z,7332.00
2023-05-08T04:34:01.976Z,7070.00
2023-05-08T04:35:02.249Z,7285.00
2023-05-08T04:36:01.987Z,7052.00
2023-05-08T04:37:02.024Z,6940.00
2023-05-08T04:38:01.954Z,6842.00
2023-05-08T04:39:01.958Z,6749.00
2023-05-08T04:40:01.972Z,6593.00
2023-05-08T04:41:01.980Z,6673.00
2023-05-08T04:42:01.961Z,6791.00
2023-05-08T04:43:01.933Z,6962.00
2023-05-08T04:44:01.909Z,6896.00
2023-05-08T04:45:01.925Z,6902.00
2023-05-08T04:46:01.943Z,6863.00
2023-05-08T04:47:01.973Z,6706.00
2023-05-08T04:48:01.889Z,6690.00
2023-05-08T04:49:01.902Z,6762.00
2023-05-08T04:50:03.048Z,6810.00
2023-05-08T04:51:01.871Z,6713.00
2023-05-08T04:52:01.850Z,6772.00
2023-05-08T04:53:01.883Z,6507.00
2023-05-08T04:54:01.837Z,6609.00
2023-05-08T04:55:01.843Z,6875.00
2023-05-08T04:56:01.885Z,6914.00
2023-05-08T04:57:01.895Z,6899.00
2023-05-08T04:58:01.839Z,6970.00
2023-05-08T04:59:01.823Z,6735.00
2023-05-08T05:00:02.707Z,6572.00
2023-05-08T05:01:01.892Z,6369.00
2023-05-08T05:02:01.933Z,6421.00
2023-05-08T05:03:01.860Z,6344.00
2023-05-08T05:04:01.840Z,6513.00
2023-05-08T05:05:01.833Z,6566.00
2023-05-08T05:06:01.754Z,6647.00
2023-05-08T05:07:01.762Z,6829.00
2023-05-08T05:08:01.830Z,6801.00
2023-05-08T05:09:01.765Z,6613.00
2023-05-08T05:10:01.740Z,6585.00
2023-05-08T05:11:01.740Z,6706.00
2023-05-08T05:12:01.751Z,6932.00
2023-05-08T05:13:01.765Z,6942.00
2023-05-08T05:14:01.799Z,6846.00
2023-05-08T05:15:01.769Z,6905.00
2023-05-08T05:16:02.314Z,6667.00
2023-05-08T05:17:01.702Z,6586.00
2023-05-08T05:18:01.750Z,6545.00
2023-05-08T05:19:01.743Z,6413.00
2023-05-08T05:20:01.687Z,6321.00
2023-05-08T05:21:01.764Z,6317.00
2023-05-08T05:22:01.775Z,6333.00
2023-05-08T05:23:01.806Z,6384.00
2023-05-08T05:24:01.778Z,6408.00
2023-05-08T05:25:02.236Z,6380.00
2023-05-08T05:26:01.853Z,6512.00
2023-05-08T05:27:01.997Z,6307.00
2023-05-08T05:28:01.965Z,6237.00
2023-05-08T05:29:02.027Z,6334.00
2023-05-08T05:30:02.109Z,6444.00
2023-05-08T05:31:02.860Z,6402.00
2023-05-08T05:32:02.308Z,6426.00
2023-05-08T05:33:02.796Z,6403.00
2023-05-08T05:34:02.287Z,6493.00
2023-05-08T05:35:02.241Z,6562.00
2023-05-08T05:36:02.270Z,6466.00
2023-05-08T05:37:02.321Z,6293.00
2023-05-08T05:38:02.752Z,6456.00
2023-05-08T05:39:02.459Z,6653.00
2023-05-08T05:40:02.397Z,6623.00
2023-05-08T05:41:02.404Z,6542.00
2023-05-08T05:42:02.445Z,6496.00
2023-05-08T05:43:02.565Z,6675.00
2023-05-08T05:44:02.526Z,6757.00
2023-05-08T05:45:02.548Z,6888.00
2023-05-08T05:46:02.597Z,7097.00
2023-05-08T05:47:02.648Z,7174.00
2023-05-08T05:48:02.637Z,7241.00
2023-05-08T05:49:02.671Z,7478.00
2023-05-08T05:50:04.387Z,7800.00
2023-05-08T05:51:02.764Z,8051.00
2023-05-08T05:52:02.792Z,7988.00
2023-05-08T05:53:02.853Z,8076.00
2023-05-08T05:54:02.901Z,8177.00
2023-05-08T05:55:03.291Z,8380.00
2023-05-08T05:56:02.860Z,8414.00
2023-05-08T05:57:02.998Z,7675.00
2023-05-08T05:58:02.950Z,7414.00
2023-05-08T05:59:02.973Z,6918.00
2023-05-08T06:00:03.231Z,6792.00
2023-05-08T06:01:03.048Z,6760.00
2023-05-08T06:02:03.134Z,6851.00
2023-05-08T06:03:03.936Z,6936.00
2023-05-08T06:04:03.382Z,6980.00
2023-05-08T06:05:03.253Z,7026.00
2023-05-08T06:06:05.369Z,7162.00
2023-05-08T06:07:03.281Z,7330.00
2023-05-08T06:08:03.349Z,7271.00
2023-05-08T06:09:03.413Z,7010.00
2023-05-08T06:10:03.449Z,7116.00
2023-05-08T06:11:03.522Z,7160.00
2023-05-08T06:12:03.483Z,7209.00
2023-05-08T06:13:03.588Z,7155.00
2023-05-08T06:14:03.540Z,7059.00
2023-05-08T06:15:03.560Z,6936.00
2023-05-08T06:16:03.594Z,6914.00
2023-05-08T06:17:03.732Z,7014.00
2023-05-08T06:18:03.885Z,7049.00
2023-05-08T06:19:03.768Z,6931.00
2023-05-08T06:20:03.778Z,6960.00
2023-05-08T06:21:03.849Z,6911.00
2023-05-08T06:22:03.873Z,6965.00
2023-05-08T06:23:03.906Z,7125.00
2023-05-08T06:24:03.905Z,7158.00
2023-05-08T06:25:03.924Z,7225.00
2023-05-08T06:26:03.927Z,7233.00
2023-05-08T06:27:04.021Z,6970.00
2023-05-08T06:28:03.989Z,7003.00
2023-05-08T06:29:04.001Z,7114.00
2023-05-08T06:30:04.056Z,7278.00
2023-05-08T06:31:04.110Z,7312.00
2023-05-08T06:32:04.124Z,7234.00
2023-05-08T06:33:04.169Z,7300.00
2023-05-08T06:34:04.442Z,7116.00
2023-05-08T06:35:04.233Z,7161.00
2023-05-08T06:36:04.188Z,7285.00
2023-05-08T06:37:04.200Z,7190.00
2023-05-08T06:38:04.788Z,6971.00
2023-05-08T06:39:04.248Z,6864.00
2023-05-08T06:40:12.029Z,6770.00
2023-05-08T06:41:05.246Z,6591.00
2023-05-08T06:42:04.279Z,6707.00
2023-05-08T06:43:04.242Z,6776.00
2023-05-08T06:44:05.287Z,6788.00
2023-05-08T06:45:04.255Z,6788.00
2023-05-08T06:46:04.295Z,6766.00
2023-05-08T06:47:04.215Z,6792.00
2023-05-08T06:48:04.275Z,6810.00
2023-05-08T06:49:04.212Z,6847.00
2023-05-08T06:50:04.249Z,6886.00
2023-05-08T06:51:04.184Z,6783.00
2023-05-08T06:52:04.253Z,6981.00
2023-05-08T06:53:04.302Z,7024.00
2023-05-08T06:54:04.359Z,7115.00
2023-05-08T06:55:04.274Z,7191.00
2023-05-08T06:56:04.200Z,7137.00
2023-05-08T06:57:04.158Z,7006.00
2023-05-08T06:58:04.176Z,7091.00
2023-05-08T06:59:08.606Z,7057.00
2023-05-08T07:00:05.205Z,6745.00
2023-05-08T07:01:04.247Z,6741.00
2023-05-08T07:02:04.200Z,6859.00
2023-05-08T07:03:04.308Z,6897.00
2023-05-08T07:04:04.158Z,6954.00
2023-05-08T07:05:04.294Z,6764.00
2023-05-08T07:06:04.193Z,6400.00
2023-05-08T07:07:04.139Z,6264.00
2023-05-08T07:08:04.131Z,6243.00
2023-05-08T07:09:04.121Z,6365.00
2023-05-08T07:10:05.911Z,6485.00
2023-05-08T07:11:04.106Z,6701.00
2023-05-08T07:12:04.080Z,6570.00
2023-05-08T07:13:04.128Z,6309.00
2023-05-08T07:14:04.070Z,6153.00
2023-05-08T07:15:13.807Z,6196.00
2023-05-08T07:16:05.088Z,6198.00
2023-05-08T07:17:04.061Z,6229.00
2023-05-08T07:18:04.101Z,6359.00
2023-05-08T07:19:04.034Z,6485.00
2023-05-08T07:20:04.039Z,6288.00
2023-05-08T07:21:03.988Z,6246.00
2023-05-08T07:22:04.103Z,6364.00
2023-05-08T07:23:04.022Z,6298.00
2023-05-08T07:24:03.989Z,6060.00
2023-05-08T07:25:03.977Z,5877.00
2023-05-08T07:26:03.974Z,5883.00
2023-05-08T07:27:04.005Z,5865.00
2023-05-08T07:28:03.976Z,5574.00
2023-05-08T07:29:03.996Z,5694.00
2023-05-08T07:30:04.054Z,5685.00
2023-05-08T07:31:04.056Z,5691.00
2023-05-08T07:32:04.238Z,5794.00
2023-05-08T07:33:04.195Z,5842.00
2023-05-08T07:34:04.302Z,5731.00
2023-05-08T07:35:04.249Z,5642.00
2023-05-08T07:36:04.216Z,5734.00
2023-05-08T07:37:04.257Z,5820.00
2023-05-08T07:38:04.766Z,5816.00
2023-05-08T07:39:04.311Z,5798.00
2023-05-08T07:40:04.340Z,5767.00
2023-05-08T07:41:04.531Z,5775.00
2023-05-08T07:42:06.309Z,5826.00
2023-05-08T07:43:04.755Z,5743.00
2023-05-08T07:44:04.427Z,5739.00
2023-05-08T07:45:05.256Z,5773.00
2023-05-08T07:46:07.269Z,5733.00
2023-05-08T07:47:05.282Z,5849.00
2023-05-08T07:48:04.523Z,5612.00
2023-05-08T07:49:05.235Z,5473.00
2023-05-08T07:50:04.527Z,5536.00
2023-05-08T07:51:04.530Z,5634.00
2023-05-08T07:52:04.702Z,5770.00
2023-05-08T07:53:04.465Z,5561.00
2023-05-08T07:54:07.273Z,5433.00
2023-05-08T07:55:04.830Z,5405.00
2023-05-08T07:56:04.430Z,5275.00
2023-05-08T07:57:04.400Z,5245.00
2023-05-08T07:58:04.409Z,5324.00
2023-05-08T07:59:04.449Z,5451.00
2023-05-08T08:00:04.407Z,5616.00
2023-05-08T08:01:04.416Z,5515.00
2023-05-08T08:02:04.449Z,5676.00
2023-05-08T08:03:04.458Z,5676.00
2023-05-08T08:04:04.400Z,5624.00
2023-05-08T08:05:04.477Z,5707.00
2023-05-08T08:06:04.366Z,5573.00
2023-05-08T08:07:04.320Z,5505.00
2023-05-08T08:08:04.351Z,5506.00
2023-05-08T08:09:04.328Z,5544.00
2023-05-08T08:10:04.489Z,5674.00
2023-05-08T08:11:04.296Z,5792.00
2023-05-08T08:12:04.333Z,5534.00
2023-05-08T08:13:04.358Z,5448.00
2023-05-08T08:14:04.322Z,5548.00
2023-05-08T08:15:04.309Z,5563.00
2023-05-08T08:16:04.293Z,5612.00
2023-05-08T08:17:04.329Z,5719.00
2023-05-08T08:18:04.277Z,5889.00
2023-05-08T08:19:04.821Z,5832.00
2023-05-08T08:20:04.263Z,5576.00
2023-05-08T08:21:04.300Z,5305.00
2023-05-08T08:22:04.315Z,5129.00
2023-05-08T08:23:04.212Z,5110.00
2023-05-08T08:24:04.260Z,5075.00
2023-05-08T08:25:04.289Z,5289.00
2023-05-08T08:26:04.191Z,5361.00
2023-05-08T08:27:04.192Z,5362.00
2023-05-08T08:28:04.252Z,5383.00
2023-05-08T08:29:04.265Z,5660.00
2023-05-08T08:30:15.611Z,5500.00
2023-05-08T08:31:05.205Z,5203.00
2023-05-08T08:32:04.271Z,5054.00
2023-05-08T08:33:04.323Z,5013.00
2023-05-08T08:34:04.186Z,5067.00
2023-05-08T08:35:04.137Z,5338.00
2023-05-08T08:36:04.112Z,5253.00
2023-05-08T08:37:04.205Z,5052.00
2023-05-08T08:38:04.144Z,5016.00
2023-05-08T08:39:04.129Z,5243.00
2023-05-08T08:40:04.119Z,5049.00
2023-05-08T08:41:04.192Z,4650.00
2023-05-08T08:42:04.274Z,4444.00
2023-05-08T08:43:04.770Z,4543.00
2023-05-08T08:44:04.278Z,4781.00
2023-05-08T08:45:04.384Z,4989.00
2023-05-08T08:46:04.399Z,5123.00
2023-05-08T08:47:04.414Z,5223.00
2023-05-08T08:48:04.560Z,4959.00
2023-05-08T08:49:04.609Z,4932.00
2023-05-08T08:50:04.740Z,4928.00
2023-05-08T08:51:04.535Z,4897.00
2023-05-08T08:52:04.552Z,4954.00
2023-05-08T08:53:04.682Z,4986.00
2023-05-08T08:54:04.662Z,4913.00
2023-05-08T08:55:04.616Z,4905.00
2023-05-08T08:56:04.633Z,5046.00
2023-05-08T08:57:04.786Z,4887.00
2023-05-08T08:58:04.768Z,4720.00
2023-05-08T08:59:04.706Z,4730.00
2023-05-08T09:00:04.761Z,4385.00
2023-05-08T09:01:04.770Z,4314.00
2023-05-08T09:02:04.808Z,4143.00
2023-05-08T09:03:04.940Z,4160.00
2023-05-08T09:04:04.896Z,4034.00
2023-05-08T09:05:04.886Z,3937.00
2023-05-08T09:06:04.864Z,3675.00
2023-05-08T09:07:04.882Z,3438.00
2023-05-08T09:08:04.904Z,3358.00
2023-05-08T09:09:04.985Z,3348.00
2023-05-08T09:10:04.897Z,3357.00
2023-05-08T09:11:05.309Z,3288.00
2023-05-08T09:12:05.814Z,3392.00
2023-05-08T09:13:05.025Z,3696.00
2023-05-08T09:14:04.951Z,3815.00
2023-05-08T09:15:05.065Z,3889.00
2023-05-08T09:16:05.000Z,3826.00
2023-05-08T09:17:04.966Z,3795.00
2023-05-08T09:18:05.127Z,3839.00
2023-05-08T09:19:05.105Z,3905.00
2023-05-08T09:20:05.096Z,3928.00
2023-05-08T09:21:05.136Z,4186.00
2023-05-08T09:22:05.286Z,4403.00
2023-05-08T09:23:05.265Z,4550.00
2023-05-08T09:24:05.324Z,4386.00
2023-05-08T09:25:05.415Z,4288.00
2023-05-08T09:26:05.400Z,4203.00
2023-05-08T09:27:05.451Z,3938.00
2023-05-08T09:28:05.526Z,3518.00
2023-05-08T09:29:05.529Z,3363.00
2023-05-08T09:30:05.597Z,3639.00
2023-05-08T09:31:05.631Z,3951.00
2023-05-08T09:32:05.771Z,3992.00
2023-05-08T09:33:05.972Z,4026.00
2023-05-08T09:34:05.784Z,3855.00
2023-05-08T09:35:05.882Z,3856.00
2023-05-08T09:36:06.265Z,3914.00
2023-05-08T09:37:06.048Z,4044.00
2023-05-08T09:38:05.953Z,3833.00
2023-05-08T09:39:06.058Z,3117.00
2023-05-08T09:40:06.864Z,2518.00
2023-05-08T09:41:06.208Z,2490.00
2023-05-08T09:42:06.140Z,2723.00
2023-05-08T09:43:06.398Z,2954.00
2023-05-08T09:44:06.803Z,2999.00
2023-05-08T09:45:06.197Z,2842.00
2023-05-08T09:46:06.220Z,2464.00
2023-05-08T09:47:06.206Z,2133.00
2023-05-08T09:48:06.258Z,1838.00
2023-05-08T09:49:06.248Z,1669.00
2023-05-08T09:50:06.339Z,1656.00
2023-05-08T09:51:06.415Z,1541.00
2023-05-08T09:52:08.512Z,1413.00
2023-05-08T09:53:06.794Z,1200.00
2023-05-08T09:54:08.324Z,1253.00
2023-05-08T09:55:06.756Z,1489.00
2023-05-08T09:56:09.397Z,1799.00
2023-05-08T09:57:06.632Z,2385.00
2023-05-08T09:58:06.796Z,2426.00
2023-05-08T09:59:06.663Z,2169.00
2023-05-08T10:00:06.654Z,1898.00
2023-05-08T10:01:06.661Z,1726.00
2023-05-08T10:02:07.314Z,1224.00
2023-05-08T10:03:06.660Z,1023.00
2023-05-08T10:04:06.772Z,924.00
2023-05-08T10:05:06.647Z,1003.00
2023-05-08T10:06:06.575Z,1171.00
2023-05-08T10:07:06.556Z,964.00
2023-05-08T10:08:06.535Z,1125.00
2023-05-08T10:09:06.550Z,1416.00
2023-05-08T10:10:06.721Z,1560.00
2023-05-08T10:11:06.581Z,1658.00
2023-05-08T10:12:06.595Z,1782.00
2023-05-08T10:13:06.750Z,1985.00
2023-05-08T10:14:06.508Z,1904.00
2023-05-08T10:15:06.504Z,2004.00
2023-05-08T10:16:06.535Z,1744.00
2023-05-08T10:17:06.560Z,1785.00
2023-05-08T10:18:06.604Z,2048.00
2023-05-08T10:19:06.459Z,2524.00
2023-05-08T10:20:06.496Z,2854.00
2023-05-08T10:21:06.470Z,2826.00
2023-05-08T10:22:06.471Z,2990.00
2023-05-08T10:23:06.436Z,3167.00
2023-05-08T10:24:06.594Z,3617.00
2023-05-08T10:25:06.448Z,3802.00
2023-05-08T10:26:06.440Z,3785.00
2023-05-08T10:27:07.888Z,3864.00
2023-05-08T10:28:06.552Z,3855.00
2023-05-08T10:29:06.405Z,3876.00
2023-05-08T10:30:06.408Z,3978.00
2023-05-08T10:31:07.357Z,3935.00
2023-05-08T10:32:06.400Z,3897.00
2023-05-08T10:33:06.570Z,3671.00
2023-05-08T10:34:06.472Z,3267.00
2023-05-08T10:35:06.454Z,2792.00
2023-05-08T10:36:06.376Z,2667.00
2023-05-08T10:37:06.367Z,2334.00
2023-05-08T10:38:06.403Z,1960.00
2023-05-08T10:39:06.359Z,2754.00
2023-05-08T10:40:06.447Z,2323.00
2023-05-08T10:41:06.388Z,2073.00
2023-05-08T10:42:06.420Z,2077.00
2023-05-08T10:43:06.419Z,2432.00
2023-05-08T10:44:06.386Z,2427.00
2023-05-08T10:45:06.339Z,1927.00
2023-05-08T10:46:06.455Z,1558.00
2023-05-08T10:47:06.428Z,1633.00
2023-05-08T10:48:06.415Z,1742.00
2023-05-08T10:49:06.314Z,803.00
2023-05-08T10:50:06.322Z,822.00
2023-05-08T10:51:06.346Z,654.00
2023-05-08T10:52:06.313Z,546.00
2023-05-08T10:53:06.452Z,570.00
2023-05-08T10:54:06.525Z,626.00
2023-05-08T10:55:06.480Z,1143.00
2023-05-08T10:56:06.490Z,757.00
2023-05-08T10:57:06.509Z,497.00
2023-05-08T10:58:06.953Z,506.00
2023-05-08T10:59:06.654Z,556.00
2023-05-08T11:00:06.722Z,744.00
2023-05-08T11:01:07.713Z,400.00
2023-05-08T11:02:06.825Z,400.00
2023-05-08T11:03:14.158Z,400.00
2023-05-08T11:04:08.419Z,400.00
2023-05-08T11:05:06.767Z,409.00
2023-05-08T11:06:06.731Z,448.00
2023-05-08T11:07:06.799Z,531.00
2023-05-08T11:08:06.758Z,547.00
2023-05-08T11:09:06.781Z,526.00
2023-05-08T11:10:07.324Z,634.00
2023-05-08T11:11:07.317Z,870.00
2023-05-08T11:12:06.772Z,1353.00
2023-05-08T11:13:07.437Z,2151.00
2023-05-08T11:14:06.799Z,2736.00
2023-05-08T11:15:06.908Z,2433.00
2023-05-08T11:16:06.879Z,1254.00
2023-05-08T11:17:06.933Z,948.00
2023-05-08T11:18:07.025Z,963.00
2023-05-08T11:19:06.955Z,1337.00
2023-05-08T11:20:07.320Z,1352.00
2023-05-08T11:21:07.318Z,1376.00
2023-05-08T11:22:07.937Z,1755.00
2023-05-08T11:23:07.032Z,1817.00
2023-05-08T11:24:08.006Z,1265.00
2023-05-08T11:25:07.897Z,1235.00
2023-05-08T11:26:07.221Z,1791.00
2023-05-08T11:27:07.180Z,1521.00
2023-05-08T11:28:07.281Z,1608.00
2023-05-08T11:29:07.224Z,1624.00
2023-05-08T11:30:07.278Z,1910.00
2023-05-08T11:31:07.352Z,1936.00
2023-05-08T11:32:07.374Z,2118.00
2023-05-08T11:33:07.417Z,2368.00
2023-05-08T11:34:07.393Z,1688.00
2023-05-08T11:35:07.425Z,1731.00
2023-05-08T11:36:07.467Z,2035.00
2023-05-08T11:37:07.467Z,2408.00
2023-05-08T11:38:07.484Z,2675.00
2023-05-08T11:39:07.493Z,3133.00
2023-05-08T11:40:07.560Z,3106.00
2023-05-08T11:41:07.571Z,3030.00
2023-05-08T11:42:07.628Z,3353.00
2023-05-08T11:43:08.437Z,3710.00
2023-05-08T11:44:07.673Z,3896.00
2023-05-08T11:45:07.748Z,3637.00
2023-05-08T11:46:07.747Z,3413.00
2023-05-08T11:47:07.932Z,3451.00
2023-05-08T11:48:07.857Z,3746.00
2023-05-08T11:49:07.831Z,3272.00
2023-05-08T11:50:07.921Z,3121.00
2023-05-08T11:51:07.892Z,3379.00
2023-05-08T11:52:07.939Z,3838.00
2023-05-08T11:53:08.058Z,3988.00
2023-05-08T11:54:08.044Z,4031.00
2023-05-08T11:55:08.015Z,3783.00
2023-05-08T11:56:08.062Z,3592.00
2023-05-08T11:57:08.087Z,3804.00
2023-05-08T11:58:08.100Z,3723.00
2023-05-08T11:59:08.202Z,3594.00
2023-05-08T12:00:08.166Z,3688.00
2023-05-08T12:01:08.306Z,4207.00
2023-05-08T12:02:09.515Z,4951.00
2023-05-08T12:03:08.381Z,7949.00
2023-05-08T12:04:08.597Z,8562.00
2023-05-08T12:05:08.460Z,8187.00
2023-05-08T12:06:08.350Z,8377.00
2023-05-08T12:07:08.452Z,7891.00